Valentine, TX (79854)

8:21 PM CDT on July 29, 2016 (GMT -0500)
ValentineRadio.net | | Change Station

Elev 4432 ft 30.59 °N, 104.50 °W | Updated 17 seconds ago

Clear
Clear
74.7 °F
Feels Like 76 °F
N
4.0
Wind Variable Wind from NW
Gusts 4.0 mph

Today
High -- | Low -- °F
--% Chance of Precip.
Yesterday
High -- | Low -- °F
Precip. -- in
Pressure 29.99 in
Visibility 10.0 miles
Clouds Clear
Heat Index 76 °F
Dew Point 65 °F
Humidity 71%
Rainfall 0.02 in
Snow Depth Not available.
7:14 AM 8:54 PM
Waning Crescent, 17% visible
METAR KMRF 300056Z AUTO 07004KT 10SM CLR 21/18 A3014 RMK AO2 SLP154 T02110183
Pressure 29.99 in
Visibility 10.0 miles
Clouds Clear
Heat Index 76 °F
Dew Point 65 °F
Humidity 71%
Rainfall 0.02 in
Snow Depth Not available.
7:14 AM 8:54 PM
Waning Crescent, 17% visible
METAR KMRF 300056Z AUTO 07004KT 10SM CLR 21/18 A3014 RMK AO2 SLP154 T02110183

10-Day Weather Forecast

Almanac

Astronomy

Jul. 29, 2016 Rise Set
Actual Time
Civil Twilight
Nautical Twilight
Astronomical Twilight
Moon
Length of Visible Light
Length of Day
Tomorrow will be .
, % of the Moon is Illuminated

Today's Extremes

State Highs State Lows

Community

WunderPhotos

Upload Photos

1,928,476 photos uploaded!

WunderBlog® & News

Nearby

Air Quality

  Air Quality AQ Index Pollutant
Not available.

Snow Depth

Station Depth Elevation

Earthquake Activity

City Distance Mag. Time & Date
Minimum magnitude displayed is 2.5.

Coastal Water Temperatures

Place Temperature

Stations

Nearby Weather Stations

Station Location Temp. Windchill Dew Point Humidity Wind Precip. Elev Updated Type
                   

Watches & Warnings

There are currently no watches in effect.